默认 日期 大小 文件数 浏览量 最新下载 xml
staples磁力链接相关资源由用户搜索指令自动获取,结果来源于网络,本站不存储任何资料,亦不承担任何责任,请于24小时内删除,搜索到411个磁力,用时0ms。
    {"cover.jpg": 252809, "08. Anthem.flac": 16349099, "01. Chicago.flac": 19710591, "06. Godspeed.flac": 17252090, "04. Human Mind.flac": 19675770, "05. Hard Times.flac": 25670891, "09. Satisfied Mind.flac": 20062138, "02. Beautiful Strangers.flac": 34333480, ...
创建时间: 2025-11-09 11:01:17 大小:211.32 MB 文件数量:11 热度:0
    {"Importante Leeme!.vbs": 213, "Descargar Películas, Series y Animes...url": 50, "El.show.de.Vince.Staples.S02E06.2025.WEB-DL.1080p-Dual-Lat.mkv": 990624768}
创建时间: 2025-11-09 12:57:47 大小:944.73 MB 文件数量:3 热度:0
    ... ": 52915536, "05. Mavis Staples - Hard Times.flac": 72575794 ... , "09. Mavis Staples - Satisfied Mind.flac": 58194724 ... , "02. Mavis Staples - Beautiful Strangers.flac": 93023359 ... 57464304, "10. Mavis Staples - Everybody Needs Love.flac": ...
创建时间: 2025-11-09 13:24:56 大小:584.63 MB 文件数量:13 热度:0
    {"hackstore.url": 123, "El.Show.De.Vince.Staples.S02e04.2025.1080P-Dual-Lat.mkv": 482199380, "El.Show.De.Vince.Staples.S02e04.2025.1080P-Dual-Lat_Track05.srt": 14312}
创建时间: 2025-11-09 13:38:19 大小:459.87 MB 文件数量:3 热度:0
    {"hackstore.url": 123, "El.Show.De.Vince.Staples.S02e06.2025.1080P-Dual-Lat.mkv": 439984666, "El.Show.De.Vince.Staples.S02e06.2025.1080P-Dual-Lat_Track05.srt": 17173}
创建时间: 2025-11-09 13:58:34 大小:419.62 MB 文件数量:3 热度:0
    ... .org .txt": 129, "The.Vince.Staples.Show.S02E04.1080p.WEB.h264 ... -EDITH.mkv": 1457796474, "the.vince.staples.show.s02e04.1080p.web.h264 ...
创建时间: 2025-11-09 15:29:02 大小:1.37 GB 文件数量:7 热度:0
    ... .org .txt": 129, "The.Vince.Staples.Show.S02E03.1080p.HEVC.x265 ... -MeGusta.mkv": 237970186, "The.Vince.Staples.Show.S02E03.1080p.HEVC.x265 ...
创建时间: 2025-11-09 16:56:31 大小:248.52 MB 文件数量:6 热度:0
    {"cover.jpg": 252809, "08. Anthem.mp3": 7630831, "01. Chicago.mp3": 6570352, "06. Godspeed.mp3": 7046791, "04. Human Mind.mp3": 7955947, "05. Hard Times.mp3": 11672703, "09. Satisfied Mind.mp3": 9344570, "02. Beautiful Strangers.mp3": 14591956, "07. We Got ...
创建时间: 2025-11-09 18:58:25 大小:90.38 MB 文件数量:11 热度:0
    {"hackstore.url": 123, "El.Show.De.Vince.Staples.S02e03.2025.1080P-Dual-Lat.mkv": 458764244}
创建时间: 2025-11-10 09:36:03 大小:437.51 MB 文件数量:2 热度:0
    ... ": 186336983, "The.Vince.Staples.Show.S02E02.FRENCH.WEBRip.x264 ... ": 121290870, "The.Vince.Staples.Show.S02E03.FRENCH.WEBRip.x264 ... ": 138955466, "The.Vince.Staples.Show.S02E04.FRENCH.WEBRip.x264 ... mp4": 149295053, "The.Vince.Staples.Show.S02E06.FiNAL.FRENCH.WEBRip ...
创建时间: 2025-11-10 10:10:46 大小:867.72 MB 文件数量:6 热度:0
    ... .Pw.mkv": 257474419, "The.Vince.Staples.Show.S02E02.720p.WEB-DL ... .Pw.mkv": 274119345, "The.Vince.Staples.Show.S02E03.720p.WEB-DL ... .Pw.mkv": 268062932, "The.Vince.Staples.Show.S02E04.720p.WEB-DL ... .Pw.mkv": 277547446, "The.Vince.Staples.Show.S02E05.720p.WEB-DL ...
创建时间: 2025-11-10 13:33:59 大小:1.51 GB 文件数量:6 热度:0
    ... .org .txt": 129, "The.Vince.Staples.Show.S02E04.1080p.AV1.10bit ... -MeGusta.mkv": 215786933, "The.Vince.Staples.Show.S02E04.1080p.AV1.10bit ...
创建时间: 2025-11-10 15:42:30 大小:205.99 MB 文件数量:6 热度:0
    ... .org .txt": 129, "The.Vince.Staples.Show.S02E03.1080p.AV1.10bit ... -MeGusta.mkv": 234647756, "The.Vince.Staples.Show.S02E03.1080p.AV1.10bit ...
创建时间: 2025-11-10 17:32:36 大小:224.22 MB 文件数量:6 热度:0
    {"hackstore.url": 123, "El.Show.De.Vince.Staples.S02e01.2025.1080P-Dual-Lat.mkv": 565685825, "El.Show.De.Vince.Staples.S02e01.2025.1080P-Dual-Lat_Track05.srt": 26020}
创建时间: 2025-11-10 18:42:36 大小:539.5 MB 文件数量:3 热度:0
    {"hackstore.url": 123, "El.Show.De.Vince.Staples.S02e05.2025.1080P-Dual-Lat.mkv": 500610414, "El.Show.De.Vince.Staples.S02e05.2025.1080P-Dual-Lat_Track05.srt": 21024}
创建时间: 2025-11-11 16:30:37 大小:477.44 MB 文件数量:3 热度:0
    ... mkv": 2122437832, "The.Vince.Staples.Show.S02E02.MULTi.1080p.WEB ... mkv": 1437820015, "The.Vince.Staples.Show.S02E03.MULTi.1080p.WEB ... ": 1555523810, "The.Vince.Staples.Show.S02E04.MULTi.1080p.WEB ... mkv": 1681911225, "The.Vince.Staples.Show.S02E06.FiNAL.MULTi.1080p ...
创建时间: 2025-11-11 18:18:43 大小:9.28 GB 文件数量:6 热度:0
    {"Importante Leeme!.vbs": 213, "Descargar Películas, Series y Animes...url": 50, "El.show.de.Vince.Staples.S02E05.2025.WEB-DL.1080p-Dual-Lat.mkv": 1113738678}
创建时间: 2025-11-12 10:09:35 大小:1.04 GB 文件数量:3 热度:0
    ... Called Jesus.flac": 29656475, "Mavis Staples - The Voice.log": 14846, "Mavis ... Staples - The Voice.m3u": 861, "03 - ...
创建时间: 2025-11-12 10:33:57 大小:374.88 MB 文件数量:21 热度:0
    ... No One.flac": 39125857, "Mavis Staples - Time Waits For No One ... .log": 11056, "Mavis Staples - Time Waits For No One ...
创建时间: 2025-11-12 10:35:39 大小:256.43 MB 文件数量:22 热度:0
    ... mkv": 1877461240, "The.Vince.Staples.Show.S01E02.MULTi.1080p.WEB ... mkv": 1423831047, "The.Vince.Staples.Show.S01E03.MULTi.1080p.WEB ... ": 1008457548, "The.Vince.Staples.Show.S01E04.MULTi.1080p.WEB ... mkv": 1116637606, "The.Vince.Staples.Show.S01E05.FiNAL.MULTi.1080p ...
创建时间: 2025-11-12 17:28:24 大小:6.12 GB 文件数量:5 热度:0